Atlantic City, NJ

1:36 AM EDT on November 01, 2014 (GMT -0400)
Miller | Change Station
CLOSE
Current Station
Airport
Location: Toms River,
Elevation: 82 ft
Nearby Weather Stations
Active Advisory: Coastal Flood Advisory

Elev 82 ft 39.93 °N, 74.29 °W | Updated 21 minutes ago

Mostly Cloudy
Mostly Cloudy
54 °F
Feels Like 54 °F
N
9
Wind Variable Wind from NE
Gusts 20 mph

Today
High -- | Low -- °F
--% Chance of Precip.
Yesterday
High -- | Low -- °F
Precip. -- in
7:25 AM 5:56 PM
Waxing Gibbous, 63% visible
Pressure 29.79 in
Visibility 10.0 miles
Clouds Overcast 1000 ft
Dew Point 48 °F
Humidity 82%
Rainfall 0.00 in
Snow Depth Not available.
UV 0 out of 12
Pollen .30 out of 12
Air Quality Not available.
Flu Activity Not available.
METAR KMJX 010515Z AUTO 04008G17KT 10SM OVC010 12/09 A2979 RMK AO1

More Conditions Fewer Conditions

Pressure 29.79 in
Visibility 10.0 miles
Clouds Overcast 1000 ft
Dew Point 48 °F
Humidity 82%
Rainfall 0.00 in
Snow Depth Not available.
UV 0 out of 12
Pollen .30 out of 12
Air Quality Not available.
Flu Activity Not available.
METAR KMJX 010515Z AUTO 04008G17KT 10SM OVC010 12/09 A2979 RMK AO1

More Conditions Fewer Conditions

Nowcast | as of 12:17 am EDT on November 1, 2014

Rain showers will move across the area and increase in coverage during the overnight hours. Most rain is expected to be light, although some moderate showers may move onshore. Rain amounts will generally be around a couple of hundredths of an inch per hour where it falls, with isolated higher amounts with moderate showers. Northeast winds around 10 to 15 mph with gusts around 20 mph will continue.

×

10-Day Weather Forecast

Almanac

Astronomy

Nov. 01, 2014 Rise Set
Actual Time
Civil Twilight
Nautical Twilight
Astronomical Twilight
Moon
Length of Visible Light
Length of Day
Tomorrow will be .
, % of the Moon is Illuminated

Today's Extremes

State Highs State Lows

Community

WunderPhotos

Upload Photos

1,766,859 photos uploaded!

WunderBlogs® & News

Nearby

Air Quality

  Air Quality AQ Index Pollutant
Not available.

Snow Depth

Station Depth Elevation

Earthquake Activity

City Distance Mag. Time & Date
Minimum magnitude displayed is 2.5.

Coastal Water Temperatures

Place Temperature

Nearby Weather Stations